createdAt,value
2023-08-05T00:01:46.020Z,9.23
2023-08-05T00:04:19.321Z,10.20
2023-08-05T00:06:52.043Z,9.65
2023-08-05T00:09:24.554Z,8.00
2023-08-05T00:11:56.914Z,10.85
2023-08-05T00:14:29.307Z,9.32
2023-08-05T00:17:02.164Z,9.52
2023-08-05T00:19:35.236Z,10.40
2023-08-05T00:22:07.949Z,9.68
2023-08-05T00:24:40.927Z,12.73
2023-08-05T00:27:13.308Z,11.88
2023-08-05T00:29:46.624Z,10.68
2023-08-05T00:32:19.046Z,9.95
2023-08-05T00:34:53.118Z,12.27
2023-08-05T00:37:25.462Z,9.20
2023-08-05T00:39:57.898Z,9.52
2023-08-05T00:42:30.331Z,11.52
2023-08-05T00:45:02.968Z,9.07
2023-08-05T00:47:37.028Z,11.57
2023-08-05T00:50:13.491Z,11.25
2023-08-05T00:52:45.982Z,11.07
2023-08-05T00:55:18.486Z,11.50
2023-08-05T00:57:51.367Z,10.80
2023-08-05T01:00:24.265Z,10.77
2023-08-05T01:02:56.641Z,10.70
2023-08-05T01:05:30.383Z,13.45
2023-08-05T01:08:05.220Z,11.55
2023-08-05T01:10:37.591Z,11.55
2023-08-05T01:13:10.308Z,15.23
2023-08-05T01:15:42.838Z,14.18
2023-08-05T01:18:18.029Z,10.60
2023-08-05T01:20:53.430Z,11.07
2023-08-05T01:23:36.481Z,8.93
2023-08-05T01:26:11.424Z,10.50
2023-08-05T01:28:46.122Z,11.65
2023-08-05T01:31:19.328Z,9.60
2023-08-05T01:33:52.550Z,10.77
2023-08-05T01:36:25.031Z,11.55
2023-08-05T01:38:57.355Z,10.70
2023-08-05T01:41:30.810Z,12.48
2023-08-05T01:44:03.183Z,11.10
2023-08-05T01:46:35.548Z,9.82
2023-08-05T01:49:07.930Z,10.63
2023-08-05T01:51:40.334Z,9.73
2023-08-05T01:54:12.698Z,13.23
2023-08-05T01:56:45.765Z,10.23
2023-08-05T01:59:18.131Z,12.23
2023-08-05T02:01:50.583Z,11.90
2023-08-05T02:04:22.925Z,13.70
2023-08-05T02:06:55.453Z,11.10
2023-08-05T02:09:27.878Z,11.10
2023-08-05T02:12:00.945Z,11.65
2023-08-05T02:14:33.972Z,17.55
2023-08-05T02:17:06.863Z,11.75
2023-08-05T02:19:39.441Z,11.00
2023-08-05T02:22:11.783Z,13.40
2023-08-05T02:24:44.129Z,11.50
2023-08-05T02:27:19.056Z,13.75
2023-08-05T02:29:51.381Z,12.25
2023-08-05T02:32:23.729Z,11.77
2023-08-05T02:34:57.273Z,10.95
2023-08-05T02:37:29.709Z,10.85
2023-08-05T02:40:03.980Z,10.07
2023-08-05T02:42:37.067Z,12.32
2023-08-05T02:45:09.772Z,13.35
2023-08-05T02:47:42.188Z,16.52
2023-08-05T02:50:14.541Z,12.55
2023-08-05T02:52:46.970Z,12.02
2023-08-05T02:55:19.328Z,11.30
2023-08-05T02:57:52.734Z,12.30
2023-08-05T03:00:25.184Z,10.88
2023-08-05T03:02:57.569Z,12.80
2023-08-05T03:05:30.019Z,12.15
2023-08-05T03:08:03.184Z,11.55
2023-08-05T03:10:35.510Z,12.52
2023-08-05T03:13:08.492Z,11.73
2023-08-05T03:15:40.892Z,10.68
2023-08-05T03:18:21.179Z,12.20
2023-08-05T03:20:53.683Z,13.88
2023-08-05T03:23:26.608Z,11.32
2023-08-05T03:26:00.934Z,13.38
2023-08-05T03:28:34.039Z,11.85
2023-08-05T03:31:06.617Z,12.07
2023-08-05T03:33:39.077Z,10.18
2023-08-05T03:36:13.413Z,10.25
2023-08-05T03:38:46.001Z,14.43
2023-08-05T03:41:18.402Z,11.90
2023-08-05T03:43:51.418Z,12.25
2023-08-05T03:46:23.805Z,12.70
2023-08-05T03:48:56.551Z,10.32
2023-08-05T03:51:28.972Z,12.60
2023-08-05T03:54:02.193Z,10.75
2023-08-05T03:56:34.711Z,12.73
2023-08-05T03:59:09.113Z,11.40
2023-08-05T04:01:41.673Z,10.57
2023-08-05T04:04:14.141Z,9.93
2023-08-05T04:06:46.558Z,12.88
2023-08-05T04:09:21.945Z,13.27
2023-08-05T04:11:54.560Z,11.05
2023-08-05T04:14:27.568Z,11.68
2023-08-05T04:17:02.450Z,13.25
2023-08-05T04:19:34.944Z,12.90
2023-08-05T04:22:07.522Z,10.82
2023-08-05T04:24:42.345Z,12.13
2023-08-05T04:27:14.947Z,11.07
2023-08-05T04:29:48.055Z,12.55
2023-08-05T04:32:21.170Z,10.85
2023-08-05T04:34:53.592Z,13.38
2023-08-05T04:37:27.256Z,13.00
2023-08-05T04:39:59.574Z,14.00
2023-08-05T04:42:31.879Z,11.40
2023-08-05T04:45:06.164Z,13.90
2023-08-05T04:47:38.523Z,13.65
2023-08-05T04:50:10.952Z,14.02
2023-08-05T04:52:44.788Z,12.05
2023-08-05T04:55:17.167Z,12.15
2023-08-05T04:57:53.052Z,19.15
2023-08-05T05:00:26.468Z,13.27
2023-08-05T05:02:58.874Z,10.30
2023-08-05T05:05:33.494Z,15.57
2023-08-05T05:08:05.833Z,11.48
2023-08-05T05:10:38.208Z,13.32
2023-08-05T05:13:10.563Z,12.25
2023-08-05T05:15:43.579Z,13.95
2023-08-05T05:18:15.925Z,11.43
2023-08-05T05:20:50.330Z,13.38
2023-08-05T05:23:22.756Z,11.32
2023-08-05T05:25:55.116Z,10.30
2023-08-05T05:28:27.434Z,11.35
2023-08-05T05:31:03.273Z,10.35
2023-08-05T05:33:35.850Z,10.15
2023-08-05T05:36:08.160Z,9.52
2023-08-05T05:38:40.507Z,11.20
2023-08-05T05:41:12.883Z,11.70
2023-08-05T05:43:45.260Z,10.15
2023-08-05T05:46:20.128Z,10.00
2023-08-05T05:48:52.525Z,9.40
2023-08-05T05:51:24.883Z,13.20
2023-08-05T05:53:58.102Z,9.80
2023-08-05T05:56:31.302Z,8.73
2023-08-05T05:59:03.687Z,9.95
2023-08-05T06:01:36.702Z,12.70
2023-08-05T06:04:09.960Z,8.95
2023-08-05T06:06:42.443Z,12.40
2023-08-05T06:09:15.536Z,9.95
2023-08-05T06:11:48.105Z,10.73
2023-08-05T06:14:21.414Z,10.13
2023-08-05T06:16:54.812Z,11.60
2023-08-05T06:19:27.498Z,13.82
2023-08-05T06:21:59.889Z,11.80
2023-08-05T06:24:32.226Z,9.35
2023-08-05T06:27:05.314Z,9.52
2023-08-05T06:29:37.677Z,8.90
2023-08-05T06:32:10.740Z,8.93
2023-08-05T06:34:43.070Z,7.88
2023-08-05T06:37:15.380Z,7.90
2023-08-05T06:39:47.748Z,10.85
2023-08-05T06:42:23.833Z,10.70
2023-08-05T06:44:56.182Z,11.05
2023-08-05T06:47:31.715Z,8.07
2023-08-05T06:50:07.069Z,9.15
2023-08-05T06:52:39.406Z,8.93
2023-08-05T06:55:12.596Z,12.27
2023-08-05T06:57:45.656Z,9.02
2023-08-05T07:00:18.256Z,7.25
2023-08-05T07:02:51.586Z,8.63
2023-08-05T07:05:24.206Z,8.30
2023-08-05T07:07:56.613Z,8.75
2023-08-05T07:10:28.991Z,8.57
2023-08-05T07:13:06.142Z,8.82
2023-08-05T07:15:38.508Z,7.50
2023-08-05T07:18:11.599Z,6.80
2023-08-05T07:20:43.961Z,8.23
2023-08-05T07:23:16.304Z,10.60
2023-08-05T07:25:48.869Z,7.63
2023-08-05T07:28:21.242Z,9.73
2023-08-05T07:31:02.877Z,9.30
2023-08-05T07:33:35.892Z,7.40
2023-08-05T07:36:09.949Z,7.25
2023-08-05T07:38:45.036Z,7.97
2023-08-05T07:41:19.351Z,7.97
2023-08-05T07:43:51.840Z,10.57
2023-08-05T07:46:26.107Z,8.35
2023-08-05T07:49:01.106Z,8.90
2023-08-05T07:51:33.446Z,12.18
2023-08-05T07:54:05.883Z,7.45
2023-08-05T07:56:39.780Z,7.15
2023-08-05T07:59:13.441Z,7.05
2023-08-05T08:01:46.404Z,10.75
2023-08-05T08:04:19.480Z,7.72
2023-08-05T08:06:52.579Z,6.43
2023-08-05T08:09:24.900Z,7.68
2023-08-05T08:11:57.244Z,8.40
2023-08-05T08:14:29.604Z,9.57
2023-08-05T08:17:01.953Z,7.15
2023-08-05T08:19:34.979Z,10.20
2023-08-05T08:22:07.331Z,7.68
2023-08-05T08:24:39.653Z,7.53
2023-08-05T08:27:11.948Z,8.95
2023-08-05T08:29:44.304Z,6.75
2023-08-05T08:32:16.665Z,9.57
2023-08-05T08:34:49.674Z,8.60
2023-08-05T08:37:22.126Z,8.90
2023-08-05T08:39:54.453Z,10.35
2023-08-05T08:42:27.539Z,6.90
2023-08-05T08:45:01.693Z,8.45
2023-08-05T08:47:35.909Z,9.30
2023-08-05T08:50:09.955Z,9.82
2023-08-05T08:52:45.879Z,8.40
2023-08-05T08:55:20.493Z,8.68
2023-08-05T08:57:52.880Z,8.27
2023-08-05T09:00:27.072Z,7.85
2023-08-05T09:03:01.014Z,7.95
2023-08-05T09:05:41.165Z,8.10
2023-08-05T09:08:14.060Z,6.18
2023-08-05T09:10:46.405Z,7.72
2023-08-05T09:13:20.100Z,7.00
2023-08-05T09:15:55.575Z,7.05
2023-08-05T09:18:28.023Z,8.60
2023-08-05T09:21:02.324Z,7.60
2023-08-05T09:23:45.240Z,7.93
2023-08-05T09:26:27.584Z,8.57
2023-08-05T09:29:01.095Z,10.63
2023-08-05T09:31:33.494Z,10.13
2023-08-05T09:34:05.906Z,7.50
2023-08-05T09:36:41.211Z,7.88
2023-08-05T09:39:16.631Z,7.47
2023-08-05T09:41:52.292Z,8.93
2023-08-05T09:44:24.780Z,8.77
2023-08-05T09:47:03.213Z,7.03
2023-08-05T09:49:38.199Z,7.32
2023-08-05T09:52:12.504Z,8.65
2023-08-05T09:54:51.384Z,7.15
2023-08-05T09:57:26.286Z,8.40
2023-08-05T10:00:01.406Z,7.82
2023-08-05T10:02:41.828Z,9.63
2023-08-05T10:05:14.858Z,9.05
2023-08-05T10:07:48.091Z,7.35
2023-08-05T10:10:21.472Z,8.35
2023-08-05T10:13:03.519Z,8.77
2023-08-05T10:15:39.693Z,10.57
2023-08-05T10:18:14.933Z,7.43
2023-08-05T10:20:50.882Z,8.23
2023-08-05T10:23:25.925Z,8.60
2023-08-05T10:26:00.475Z,11.10
2023-08-05T10:28:41.506Z,8.15
2023-08-05T10:31:29.060Z,7.90
2023-08-05T10:34:12.236Z,9.32
2023-08-05T10:36:45.960Z,8.25
2023-08-05T10:39:43.891Z,7.75
2023-08-05T10:42:36.675Z,11.00
2023-08-05T10:45:10.131Z,10.30
2023-08-05T10:47:48.743Z,9.38
2023-08-05T10:52:54.141Z,9.25
2023-08-05T10:55:27.346Z,10.85
2023-08-05T10:57:59.778Z,7.70
2023-08-05T11:00:39.560Z,8.90
2023-08-05T11:03:32.222Z,11.65
2023-08-05T11:06:05.948Z,9.55
2023-08-05T11:08:40.227Z,10.23
2023-08-05T11:11:14.401Z,9.45
2023-08-05T11:13:49.152Z,7.72
2023-08-05T11:16:21.562Z,8.73
2023-08-05T11:18:57.442Z,9.80
2023-08-05T11:21:29.824Z,8.18
2023-08-05T11:24:02.185Z,8.50
2023-08-05T11:26:35.889Z,8.98
2023-08-05T11:29:08.422Z,10.43
2023-08-05T11:31:50.653Z,10.90
2023-08-05T11:34:25.128Z,10.70
2023-08-05T11:36:57.737Z,9.07
2023-08-05T11:39:30.088Z,8.93
2023-08-05T11:42:03.537Z,9.18
2023-08-05T11:44:35.901Z,14.15
2023-08-05T11:47:09.921Z,9.48
2023-08-05T11:49:51.791Z,8.73
2023-08-05T11:52:24.140Z,9.10
2023-08-05T11:54:58.176Z,9.02
2023-08-05T11:57:32.894Z,8.73
2023-08-05T12:00:06.999Z,8.90
2023-08-05T12:02:39.384Z,10.40
2023-08-05T12:05:12.554Z,8.50
2023-08-05T12:07:45.114Z,10.18
2023-08-05T12:10:19.031Z,8.75
2023-08-05T12:12:52.160Z,11.20
2023-08-05T12:15:28.931Z,9.40
2023-08-05T12:18:03.519Z,9.23
2023-08-05T12:20:37.728Z,9.13
2023-08-05T12:23:10.066Z,12.82
2023-08-05T12:25:42.606Z,8.82
2023-08-05T12:28:15.611Z,8.60
2023-08-05T12:30:47.926Z,10.48
2023-08-05T12:33:20.337Z,9.05
2023-08-05T12:35:53.957Z,15.45
2023-08-05T12:38:26.280Z,10.45
2023-08-05T12:40:58.591Z,9.93
2023-08-05T12:43:31.550Z,7.05
2023-08-05T12:46:03.922Z,10.77
2023-08-05T12:48:36.285Z,7.60
2023-08-05T12:51:08.617Z,7.82
2023-08-05T12:53:42.063Z,10.02
2023-08-05T12:56:15.046Z,8.77
2023-08-05T12:58:48.123Z,8.45
2023-08-05T13:01:20.491Z,8.15
2023-08-05T13:03:52.873Z,8.02
2023-08-05T13:06:25.359Z,7.05
2023-08-05T13:08:57.734Z,6.90
2023-08-05T13:11:30.129Z,7.45
2023-08-05T13:14:03.171Z,8.70
2023-08-05T13:16:35.566Z,9.18
2023-08-05T13:19:08.433Z,9.77
2023-08-05T13:21:40.822Z,9.35
2023-08-05T13:24:13.210Z,8.52
2023-08-05T13:26:45.513Z,8.05
2023-08-05T13:29:18.530Z,8.40
2023-08-05T13:31:51.425Z,7.53
2023-08-05T13:34:23.921Z,14.88
2023-08-05T13:36:56.300Z,8.60
2023-08-05T13:39:28.624Z,9.50
2023-08-05T13:42:02.090Z,8.23
2023-08-05T13:44:36.407Z,8.38
2023-08-05T13:47:08.880Z,7.68
2023-08-05T13:49:41.198Z,10.38
2023-08-05T13:52:13.523Z,8.95
2023-08-05T13:54:45.815Z,9.70
2023-08-05T13:57:18.161Z,7.72
2023-08-05T13:59:51.163Z,8.45
2023-08-05T15:10:09.245Z,6.82
2023-08-05T15:12:42.272Z,6.57
2023-08-05T15:15:14.678Z,7.43
2023-08-05T15:17:47.199Z,7.00
2023-08-05T15:20:19.553Z,6.40
2023-08-05T15:22:51.983Z,6.57
2023-08-05T15:25:24.342Z,6.93
2023-08-05T15:27:57.334Z,7.47
2023-08-05T15:30:35.401Z,8.60
2023-08-05T15:33:07.766Z,7.10
2023-08-05T15:35:40.161Z,6.65
2023-08-05T15:38:12.552Z,6.75
2023-08-05T15:40:44.857Z,7.55
2023-08-05T15:43:18.868Z,8.35
2023-08-05T15:45:55.407Z,6.55
2023-08-05T15:48:27.857Z,7.47
2023-08-05T15:51:04.177Z,8.82
2023-08-05T15:53:36.496Z,7.15
2023-08-05T15:56:10.412Z,7.57
2023-08-05T15:58:44.177Z,9.02
2023-08-05T16:01:16.591Z,8.02
2023-08-05T16:03:48.975Z,7.45
2023-08-05T16:06:21.341Z,8.80
2023-08-05T16:08:53.648Z,9.70
2023-08-05T16:11:26.518Z,7.25
2023-08-05T16:13:59.556Z,7.47
2023-08-05T16:16:31.907Z,8.02
2023-08-05T16:19:04.346Z,7.85
2023-08-05T16:21:37.174Z,8.27
2023-08-05T16:24:09.585Z,7.18
2023-08-05T16:26:42.805Z,8.40
2023-08-05T16:29:15.884Z,10.02
2023-08-05T16:31:48.274Z,7.53
2023-08-05T16:34:20.605Z,9.30
2023-08-05T16:36:52.935Z,8.43
2023-08-05T16:39:25.261Z,9.98
2023-08-05T16:41:57.964Z,8.55
2023-08-05T16:44:31.272Z,7.90
2023-08-05T16:47:04.973Z,7.25
2023-08-05T16:49:38.850Z,7.18
2023-08-05T16:52:11.231Z,6.95
2023-08-05T16:54:45.491Z,9.02
2023-08-05T16:57:17.848Z,8.07
2023-08-05T16:59:51.000Z,7.88
2023-08-05T17:02:23.372Z,8.90
2023-08-05T17:04:56.286Z,9.68
2023-08-05T17:07:28.843Z,9.20
2023-08-05T17:10:01.872Z,10.25
2023-08-05T17:12:34.244Z,9.98
2023-08-05T17:15:08.830Z,11.15
2023-08-05T17:17:41.238Z,9.98
2023-08-05T17:20:13.526Z,9.20
2023-08-05T17:22:45.809Z,8.35
2023-08-05T17:25:18.165Z,10.55
2023-08-05T17:27:50.689Z,10.73
2023-08-05T17:30:23.865Z,7.07
2023-08-05T17:32:56.254Z,8.52
2023-08-05T17:35:29.674Z,7.95
2023-08-05T17:38:03.324Z,6.95
2023-08-05T17:40:35.808Z,7.05
2023-08-05T17:43:08.205Z,8.40
2023-08-05T17:45:41.248Z,8.25
2023-08-05T17:48:13.596Z,8.90
2023-08-05T17:50:45.934Z,7.35
2023-08-05T17:53:25.127Z,6.45
2023-08-05T17:55:58.211Z,7.20
2023-08-05T17:58:30.541Z,7.40
2023-08-05T18:01:03.938Z,7.15
2023-08-05T18:03:36.412Z,7.43
2023-08-05T18:06:20.342Z,10.10
2023-08-05T18:08:54.019Z,7.93
2023-08-05T18:11:26.334Z,7.63
2023-08-05T18:13:58.968Z,7.25
2023-08-05T18:16:32.064Z,9.45
2023-08-05T18:19:05.117Z,9.68
2023-08-05T18:21:37.869Z,8.43
2023-08-05T18:24:10.332Z,8.60
2023-08-05T18:26:42.736Z,10.50
2023-08-05T18:29:17.364Z,8.02
2023-08-05T18:31:50.761Z,8.95
2023-08-05T18:34:24.715Z,9.68
2023-08-05T18:36:57.110Z,9.88
2023-08-05T18:39:32.152Z,9.30
2023-08-05T18:42:04.966Z,8.45
2023-08-05T18:44:37.443Z,10.18
2023-08-05T18:47:10.456Z,9.52
2023-08-05T18:49:42.930Z,8.82
2023-08-05T18:52:18.176Z,8.25
2023-08-05T18:54:50.589Z,9.50
2023-08-05T18:57:22.983Z,8.77
2023-08-05T18:59:55.372Z,5.97
2023-08-05T19:02:28.787Z,6.70
2023-08-05T19:05:01.915Z,8.82
2023-08-05T19:07:34.272Z,7.88
2023-08-05T19:10:07.061Z,4.43
2023-08-05T19:12:39.380Z,5.60
2023-08-05T19:15:11.769Z,4.32
2023-08-05T19:17:46.977Z,5.80
2023-08-05T19:20:19.408Z,5.10
2023-08-05T19:22:51.806Z,3.88
2023-08-05T19:25:24.167Z,4.45
2023-08-05T19:27:56.532Z,5.85
2023-08-05T19:30:28.860Z,8.00
2023-08-05T19:33:01.972Z,3.47
2023-08-05T19:35:34.401Z,5.75
2023-08-05T19:38:06.722Z,3.50
2023-08-05T19:40:39.091Z,7.80
2023-08-05T19:43:11.455Z,1.98
2023-08-05T19:45:46.068Z,3.63
2023-08-05T19:48:19.159Z,3.08
2023-08-05T19:51:07.148Z,2.58
2023-08-05T19:53:46.494Z,4.00
2023-08-05T19:56:18.984Z,3.42
2023-08-05T19:58:51.316Z,3.00
2023-08-05T20:01:23.717Z,2.70
2023-08-05T20:03:56.799Z,3.17
2023-08-05T20:06:29.192Z,3.35
2023-08-05T20:09:02.275Z,2.50
2023-08-05T20:11:34.631Z,3.17
2023-08-05T20:14:07.012Z,1.73
2023-08-05T20:16:39.433Z,3.42
2023-08-05T20:19:12.486Z,2.38
2023-08-05T20:21:44.903Z,3.67
2023-08-05T20:24:19.406Z,3.45
2023-08-05T20:26:52.137Z,2.60
2023-08-05T20:29:24.929Z,2.15
2023-08-05T20:31:57.298Z,4.38
2023-08-05T20:34:30.405Z,3.03
2023-08-05T20:37:02.894Z,4.25
2023-08-05T20:39:35.431Z,3.58
2023-08-05T20:42:07.738Z,2.15
2023-08-05T20:44:40.052Z,3.03
2023-08-05T20:47:13.054Z,3.47
2023-08-05T20:49:46.114Z,2.50
2023-08-05T20:52:18.758Z,3.30
2023-08-05T20:54:51.721Z,3.30
2023-08-05T20:57:24.080Z,5.50
2023-08-05T20:59:56.413Z,2.67
2023-08-05T21:02:30.128Z,4.13
2023-08-05T21:05:03.752Z,3.00
2023-08-05T21:07:36.098Z,2.78
2023-08-05T21:10:09.163Z,5.18
2023-08-05T21:12:41.662Z,2.53
2023-08-05T21:15:14.159Z,3.42
2023-08-05T21:17:46.493Z,4.43
2023-08-05T21:20:21.790Z,4.28
2023-08-05T21:22:54.557Z,5.85
2023-08-05T21:25:28.045Z,3.83
2023-08-05T21:28:00.384Z,3.22
2023-08-05T21:30:55.281Z,4.15
2023-08-05T21:33:28.325Z,3.33
2023-08-05T21:36:01.706Z,4.75
2023-08-05T21:38:34.085Z,4.20
2023-08-05T21:41:06.440Z,4.13
2023-08-05T21:43:39.829Z,3.80
2023-08-05T21:46:12.498Z,3.30
2023-08-05T21:48:44.896Z,4.45
2023-08-05T21:51:17.998Z,4.00
2023-08-05T21:53:50.350Z,3.03
2023-08-05T21:56:23.753Z,6.65
2023-08-05T21:58:56.168Z,5.70
2023-08-05T22:01:28.694Z,7.57
2023-08-05T22:04:02.202Z,4.25
2023-08-05T22:06:35.260Z,5.03
2023-08-05T22:09:07.706Z,3.80
2023-08-05T22:11:40.031Z,4.50
2023-08-05T22:14:12.444Z,5.57
2023-08-05T22:16:44.776Z,3.35
2023-08-05T22:19:17.110Z,3.58
2023-08-05T22:21:51.864Z,5.25
2023-08-05T22:24:34.395Z,3.67
2023-08-05T22:27:12.186Z,4.68
2023-08-05T22:29:44.646Z,3.03
2023-08-05T22:32:17.061Z,3.85
2023-08-05T22:34:52.344Z,2.83
2023-08-05T22:37:25.644Z,3.83
2023-08-05T22:39:58.930Z,4.88
2023-08-05T22:42:31.674Z,4.28
2023-08-05T22:45:04.796Z,2.58
2023-08-05T22:47:37.242Z,3.00
2023-08-05T22:50:10.105Z,3.92
2023-08-05T22:52:43.104Z,4.47
2023-08-05T22:55:15.601Z,4.82
2023-08-05T22:57:47.962Z,4.63
2023-08-05T23:00:20.285Z,3.70
2023-08-05T23:02:52.903Z,5.50
2023-08-05T23:05:25.642Z,3.47
2023-08-05T23:07:59.039Z,3.20
2023-08-05T23:10:32.168Z,3.95
2023-08-05T23:13:04.560Z,4.03
2023-08-05T23:15:37.012Z,2.75
2023-08-05T23:18:09.986Z,4.20
2023-08-05T23:20:42.443Z,6.85
2023-08-05T23:23:15.747Z,3.90
2023-08-05T23:25:48.183Z,4.85
2023-08-05T23:28:20.740Z,3.47
2023-08-05T23:30:53.119Z,5.25
2023-08-05T23:33:25.501Z,4.15
2023-08-05T23:35:58.224Z,5.55
2023-08-05T23:38:31.277Z,4.40
2023-08-05T23:41:03.967Z,6.57
2023-08-05T23:43:36.317Z,3.63
2023-08-05T23:46:08.616Z,4.47
2023-08-05T23:48:40.956Z,5.40
2023-08-05T23:51:13.634Z,7.60
2023-08-05T23:53:46.744Z,4.85
2023-08-05T23:56:19.268Z,3.78
2023-08-05T23:58:51.648Z,6.05
